createdAt,value
2019-02-28T00:01:57.098Z,56.40
2019-02-28T00:04:02.322Z,56.40
2019-02-28T00:06:11.757Z,56.40
2019-02-28T00:08:14.342Z,56.50
2019-02-28T00:10:19.689Z,56.40
2019-02-28T00:12:24.948Z,56.40
2019-02-28T00:14:30.715Z,56.50
2019-02-28T00:16:36.415Z,56.50
2019-02-28T00:18:41.336Z,56.60
2019-02-28T00:20:46.467Z,56.60
2019-02-28T00:22:51.887Z,56.70
2019-02-28T00:24:57.422Z,56.70
2019-02-28T00:27:02.314Z,56.80
2019-02-28T00:29:09.371Z,56.90
2019-02-28T00:31:15.357Z,56.90
2019-02-28T00:33:20.821Z,57.00
2019-02-28T00:35:26.060Z,57.10
2019-02-28T00:37:31.059Z,57.00
2019-02-28T00:39:36.011Z,57.00
2019-02-28T00:41:44.456Z,56.90
2019-02-28T00:43:48.603Z,56.80
2019-02-28T00:45:53.750Z,56.80
2019-02-28T00:47:59.192Z,56.90
2019-02-28T00:50:04.310Z,56.80
2019-02-28T00:52:09.429Z,57.00
2019-02-28T00:54:14.612Z,57.00
2019-02-28T00:56:19.564Z,57.20
2019-02-28T00:58:28.623Z,57.10
2019-02-28T01:00:31.772Z,57.20
2019-02-28T01:02:36.682Z,57.20
2019-02-28T01:04:41.863Z,57.10
2019-02-28T01:06:47.474Z,57.20
2019-02-28T01:08:55.827Z,57.20
2019-02-28T01:10:59.525Z,57.20
2019-02-28T01:13:04.931Z,57.30
2019-02-28T01:15:11.661Z,57.30
2019-02-28T01:17:16.650Z,57.20
2019-02-28T01:19:21.928Z,57.40
2019-02-28T01:21:27.311Z,57.50
2019-02-28T01:23:32.340Z,57.40
2019-02-28T01:25:40.161Z,57.50
2019-02-28T01:27:44.153Z,57.50
2019-02-28T01:29:49.026Z,57.50
2019-02-28T01:31:54.512Z,57.50
2019-02-28T01:33:59.798Z,57.50
2019-02-28T01:36:05.499Z,57.60
2019-02-28T01:38:10.661Z,57.60
2019-02-28T01:40:16.261Z,57.70
2019-02-28T01:42:21.197Z,57.80
2019-02-28T01:44:26.083Z,57.70
2019-02-28T01:46:31.365Z,57.80
2019-02-28T01:48:36.634Z,57.60
2019-02-28T01:50:42.295Z,57.60
2019-02-28T01:52:48.054Z,57.60
2019-02-28T01:54:53.049Z,57.50
2019-02-28T01:56:58.088Z,57.70
2019-02-28T01:59:03.307Z,57.80
2019-02-28T02:01:12.254Z,57.90
2019-02-28T02:03:22.405Z,57.80
2019-02-28T02:05:30.712Z,57.90
2019-02-28T02:07:43.402Z,57.90
2019-02-28T02:09:48.425Z,57.90
2019-02-28T02:11:53.486Z,57.90
2019-02-28T02:13:58.458Z,57.90
2019-02-28T02:16:03.435Z,57.90
2019-02-28T02:18:09.425Z,57.90
2019-02-28T02:20:15.783Z,57.90
2019-02-28T02:22:21.078Z,57.90
2019-02-28T02:24:27.924Z,57.90
2019-02-28T02:26:33.058Z,57.90
2019-02-28T02:28:38.816Z,57.90
2019-02-28T02:30:50.506Z,58.60
2019-02-28T02:32:50.937Z,57.90
2019-02-28T02:34:55.834Z,58.10
2019-02-28T02:37:01.353Z,58.10
2019-02-28T02:39:08.331Z,58.20
2019-02-28T02:41:13.759Z,58.20
2019-02-28T02:43:23.024Z,58.80
2019-02-28T02:45:28.320Z,58.20
2019-02-28T02:47:33.311Z,58.10
2019-02-28T02:49:38.649Z,58.10
2019-02-28T02:51:48.860Z,58.10
2019-02-28T02:53:50.877Z,58.20
2019-02-28T02:55:55.799Z,58.20
2019-02-28T02:58:00.825Z,58.80
2019-02-28T03:00:13.934Z,58.20
2019-02-28T03:02:17.713Z,58.30
2019-02-28T03:04:23.492Z,58.30
2019-02-28T03:06:28.930Z,58.30
2019-02-28T03:08:36.344Z,58.30
2019-02-28T03:10:41.212Z,58.30
2019-02-28T03:12:46.366Z,58.30
2019-02-28T03:14:51.645Z,58.30
2019-02-28T03:16:56.997Z,58.40
2019-02-28T03:19:01.980Z,58.40
2019-02-28T03:21:07.383Z,58.40
2019-02-28T03:23:12.271Z,58.40
2019-02-28T03:25:17.578Z,58.40
2019-02-28T03:27:22.753Z,58.40
2019-02-28T03:29:27.759Z,58.50
2019-02-28T03:31:33.106Z,58.60
2019-02-28T03:33:38.015Z,58.70
2019-02-28T03:35:44.316Z,58.80
2019-02-28T03:37:49.563Z,58.80
2019-02-28T03:40:02.703Z,58.70
2019-02-28T03:42:02.098Z,58.70
2019-02-28T03:44:07.301Z,58.60
2019-02-28T03:46:12.958Z,58.60
2019-02-28T03:48:18.459Z,58.60
2019-02-28T03:50:23.533Z,58.60
2019-02-28T03:52:28.464Z,58.60
2019-02-28T03:54:33.699Z,58.60
2019-02-28T03:56:39.092Z,58.70
2019-02-28T03:58:44.845Z,58.80
2019-02-28T04:00:49.837Z,58.70
2019-02-28T04:02:58.675Z,58.70
2019-02-28T04:05:01.686Z,58.80
2019-02-28T04:07:07.509Z,58.70
2019-02-28T04:09:12.534Z,58.50
2019-02-28T04:11:17.977Z,58.60
2019-02-28T04:13:23.669Z,58.60
2019-02-28T04:15:29.043Z,58.80
2019-02-28T04:17:34.503Z,58.80
2019-02-28T04:19:39.701Z,58.80
2019-02-28T04:21:46.601Z,58.90
2019-02-28T04:23:51.917Z,58.80
2019-02-28T04:25:57.948Z,58.70
2019-02-28T04:28:03.044Z,58.80
2019-02-28T04:30:09.532Z,58.80
2019-02-28T04:32:14.548Z,58.90
2019-02-28T04:34:20.032Z,58.90
2019-02-28T04:36:25.407Z,59.00
2019-02-28T04:38:30.621Z,59.00
2019-02-28T04:40:35.812Z,59.20
2019-02-28T04:42:40.784Z,59.00
2019-02-28T04:44:45.932Z,59.00
2019-02-28T04:46:51.256Z,59.60
2019-02-28T04:48:56.529Z,59.00
2019-02-28T04:51:02.353Z,58.90
2019-02-28T04:53:08.414Z,59.00
2019-02-28T04:55:13.631Z,59.00
2019-02-28T04:57:20.731Z,59.10
2019-02-28T04:59:25.856Z,59.30
2019-02-28T05:01:31.188Z,59.30
2019-02-28T05:03:36.248Z,59.20
2019-02-28T05:05:41.226Z,59.20
2019-02-28T05:07:46.397Z,59.20
2019-02-28T05:09:51.463Z,59.20
2019-02-28T05:11:58.657Z,59.20
2019-02-28T05:14:05.889Z,59.20
2019-02-28T05:16:12.313Z,59.20
2019-02-28T05:18:18.020Z,59.20
2019-02-28T05:20:23.057Z,59.00
2019-02-28T05:22:28.651Z,59.30
2019-02-28T05:24:34.145Z,59.10
2019-02-28T05:26:39.211Z,59.20
2019-02-28T05:28:44.216Z,59.10
2019-02-28T05:30:50.255Z,59.20
2019-02-28T05:32:55.843Z,59.20
2019-02-28T05:35:00.968Z,59.20
2019-02-28T05:37:11.885Z,59.20
2019-02-28T05:39:13.484Z,59.40
2019-02-28T05:41:18.787Z,59.40
2019-02-28T05:43:23.708Z,59.40
2019-02-28T05:45:28.952Z,59.20
2019-02-28T05:47:42.500Z,59.20
2019-02-28T05:49:42.006Z,59.30
2019-02-28T05:51:47.787Z,59.30
2019-02-28T05:53:52.781Z,59.20
2019-02-28T05:55:59.707Z,59.20
2019-02-28T05:58:04.651Z,59.20
2019-02-28T06:00:10.945Z,59.30
2019-02-28T06:02:22.523Z,59.30
2019-02-28T06:04:28.451Z,59.20
2019-02-28T06:06:33.680Z,59.10
2019-02-28T06:08:39.047Z,59.30
2019-02-28T06:10:45.508Z,59.40
2019-02-28T06:12:50.628Z,59.40
2019-02-28T06:15:02.013Z,59.40
2019-02-28T06:17:02.155Z,59.40
2019-02-28T06:19:08.268Z,59.40
2019-02-28T06:21:13.763Z,59.40
2019-02-28T06:23:18.745Z,59.40
2019-02-28T06:25:25.670Z,60.10
2019-02-28T06:27:40.851Z,59.40
2019-02-28T06:29:38.250Z,59.40
2019-02-28T06:31:45.504Z,59.30
2019-02-28T06:33:50.226Z,59.30
2019-02-28T06:35:55.473Z,59.30
2019-02-28T06:38:06.486Z,59.40
2019-02-28T06:40:10.692Z,59.60
2019-02-28T06:42:16.300Z,59.70
2019-02-28T06:44:24.193Z,59.90
2019-02-28T06:46:28.474Z,60.70
2019-02-28T06:48:33.736Z,59.90
2019-02-28T06:50:38.990Z,59.90
2019-02-28T06:52:44.148Z,59.80
2019-02-28T06:54:49.243Z,59.90
2019-02-28T06:56:55.302Z,59.80
2019-02-28T06:59:00.633Z,59.90
2019-02-28T07:01:05.713Z,59.80
2019-02-28T07:03:11.024Z,60.10
2019-02-28T07:05:16.249Z,60.30
2019-02-28T07:07:21.447Z,60.20
2019-02-28T07:09:26.970Z,60.30
2019-02-28T07:11:32.127Z,60.40
2019-02-28T07:13:40.017Z,60.70
2019-02-28T07:15:44.295Z,60.90
2019-02-28T07:17:49.973Z,60.90
2019-02-28T07:19:55.353Z,60.90
2019-02-28T07:22:01.190Z,60.80
2019-02-28T07:24:06.601Z,61.10
2019-02-28T07:26:11.584Z,61.10
2019-02-28T07:28:16.547Z,61.00
2019-02-28T07:30:21.697Z,61.20
2019-02-28T07:32:26.734Z,61.30
2019-02-28T07:34:32.301Z,61.40
2019-02-28T07:36:37.214Z,61.40
2019-02-28T07:38:42.622Z,61.30
2019-02-28T07:40:49.469Z,61.30
2019-02-28T07:42:54.495Z,61.50
2019-02-28T07:44:59.550Z,61.60
2019-02-28T07:47:04.893Z,61.60
2019-02-28T07:49:10.661Z,62.00
2019-02-28T07:51:18.448Z,62.00
2019-02-28T07:53:22.663Z,62.10
2019-02-28T07:55:30.474Z,62.10
2019-02-28T07:57:36.944Z,62.20
2019-02-28T07:59:42.693Z,62.20
2019-02-28T08:01:50.833Z,62.40
2019-02-28T08:03:55.843Z,62.60
2019-02-28T08:06:04.510Z,62.60
2019-02-28T08:08:07.775Z,62.60
2019-02-28T08:10:16.651Z,62.80
2019-02-28T08:12:21.595Z,62.90
2019-02-28T08:14:26.751Z,62.90
2019-02-28T08:16:34.069Z,62.80
2019-02-28T08:18:40.239Z,62.80
2019-02-28T08:20:45.529Z,63.00
2019-02-28T08:22:50.682Z,63.10
2019-02-28T08:24:55.661Z,63.10
2019-02-28T08:27:00.731Z,63.00
2019-02-28T08:29:08.047Z,63.10
2019-02-28T08:31:13.176Z,63.00
2019-02-28T08:33:18.238Z,62.90
2019-02-28T08:35:24.299Z,62.80
2019-02-28T08:37:29.348Z,62.80
2019-02-28T08:39:34.872Z,63.10
2019-02-28T08:41:39.918Z,63.00
2019-02-28T08:43:47.888Z,63.10
2019-02-28T08:45:52.095Z,63.30
2019-02-28T08:47:57.232Z,63.30
2019-02-28T08:50:02.298Z,63.30
2019-02-28T08:52:07.481Z,63.50
2019-02-28T08:54:12.401Z,63.60
2019-02-28T08:56:17.764Z,63.50
2019-02-28T08:58:22.770Z,63.50
2019-02-28T09:00:32.628Z,63.50
2019-02-28T09:02:35.444Z,63.80
2019-02-28T09:04:41.509Z,64.00
2019-02-28T09:06:47.537Z,63.70
2019-02-28T09:08:52.669Z,63.90
2019-02-28T09:10:57.821Z,65.30
2019-02-28T09:13:07.581Z,64.50
2019-02-28T09:15:11.659Z,65.00
2019-02-28T09:17:18.593Z,65.50
2019-02-28T09:19:23.638Z,66.20
2019-02-28T09:21:28.538Z,66.90
2019-02-28T09:23:34.543Z,68.10
2019-02-28T09:25:40.489Z,69.80
2019-02-28T09:27:45.885Z,70.60
2019-02-28T09:29:54.358Z,71.70
2019-02-28T09:31:58.255Z,72.40
2019-02-28T09:34:04.008Z,72.90
2019-02-28T09:36:09.344Z,73.10
2019-02-28T09:38:14.926Z,73.10
2019-02-28T09:40:20.166Z,72.90
2019-02-28T09:42:25.377Z,73.60
2019-02-28T09:44:31.451Z,72.40
2019-02-28T09:46:37.416Z,71.80
2019-02-28T09:48:42.651Z,71.10
2019-02-28T09:50:47.724Z,70.80
2019-02-28T09:52:52.889Z,69.20
2019-02-28T09:54:59.229Z,68.50
2019-02-28T09:57:04.971Z,67.80
2019-02-28T09:59:10.232Z,67.20
2019-02-28T10:01:15.265Z,66.90
2019-02-28T10:03:20.290Z,66.60
2019-02-28T10:05:25.354Z,66.00
2019-02-28T10:07:30.291Z,65.20
2019-02-28T10:09:35.419Z,64.40
2019-02-28T10:11:40.616Z,63.80
2019-02-28T10:13:45.948Z,63.10
2019-02-28T10:15:51.000Z,62.80
2019-02-28T10:17:56.197Z,62.30
2019-02-28T10:20:01.602Z,62.10
2019-02-28T10:22:06.671Z,61.70
2019-02-28T10:24:11.743Z,61.20
2019-02-28T10:26:17.919Z,61.00
2019-02-28T10:28:23.395Z,60.80
2019-02-28T10:30:32.097Z,60.30
2019-02-28T10:32:35.276Z,59.90
2019-02-28T10:34:40.624Z,59.50
2019-02-28T10:36:47.777Z,59.00
2019-02-28T10:38:52.689Z,58.70
2019-02-28T10:40:58.146Z,58.20
2019-02-28T10:43:03.209Z,57.80
2019-02-28T10:45:10.023Z,57.60
2019-02-28T10:47:15.087Z,57.20
2019-02-28T10:49:21.136Z,56.80
2019-02-28T10:51:27.262Z,56.60
2019-02-28T10:53:32.603Z,56.50
2019-02-28T10:55:37.672Z,56.20
2019-02-28T10:57:42.790Z,56.00
2019-02-28T10:59:48.163Z,55.60
2019-02-28T11:01:53.571Z,55.60
2019-02-28T11:04:00.218Z,55.40
2019-02-28T11:06:05.439Z,55.10
2019-02-28T11:08:16.369Z,54.80
2019-02-28T11:10:21.940Z,54.50
2019-02-28T11:12:27.322Z,54.20
2019-02-28T11:14:35.550Z,53.40
2019-02-28T11:16:39.547Z,53.20
2019-02-28T11:18:44.690Z,52.70
2019-02-28T11:20:50.396Z,52.50
2019-02-28T11:22:55.512Z,52.10
2019-02-28T11:25:01.803Z,51.80
2019-02-28T11:27:08.863Z,51.60
2019-02-28T11:29:13.936Z,51.10
2019-02-28T11:31:20.080Z,50.90
2019-02-28T11:33:25.532Z,50.70
2019-02-28T11:35:31.476Z,50.50
2019-02-28T11:37:36.837Z,50.40
2019-02-28T11:39:42.017Z,50.30
2019-02-28T11:41:49.261Z,50.00
2019-02-28T11:43:54.184Z,50.00
2019-02-28T11:46:02.794Z,49.70
2019-02-28T11:48:07.349Z,49.50
2019-02-28T11:50:12.831Z,50.40
2019-02-28T11:52:18.040Z,49.40
2019-02-28T11:54:23.584Z,49.40
2019-02-28T11:56:32.222Z,49.40
2019-02-28T11:58:39.136Z,49.30
2019-02-28T12:00:44.573Z,49.40
2019-02-28T12:02:53.372Z,49.60
2019-02-28T12:04:57.469Z,49.60
2019-02-28T12:07:02.759Z,49.70
2019-02-28T12:09:09.331Z,49.80
2019-02-28T12:11:14.800Z,49.70
2019-02-28T12:13:20.649Z,49.70
2019-02-28T12:15:27.515Z,49.70
2019-02-28T12:17:32.862Z,49.60
2019-02-28T12:19:38.320Z,49.70
2019-02-28T12:21:43.332Z,49.80
2019-02-28T12:23:48.487Z,49.50
2019-02-28T12:25:53.564Z,49.40
2019-02-28T12:28:02.913Z,49.30
2019-02-28T12:30:12.130Z,49.10
2019-02-28T12:32:17.519Z,48.60
2019-02-28T12:34:23.069Z,48.30
2019-02-28T12:36:28.395Z,48.60
2019-02-28T12:38:34.120Z,48.50
2019-02-28T12:40:39.263Z,48.40
2019-02-28T12:42:44.766Z,48.20
2019-02-28T12:44:49.787Z,48.10
2019-02-28T12:46:54.947Z,47.50
2019-02-28T12:49:00.709Z,47.40
2019-02-28T12:51:06.287Z,47.50
2019-02-28T12:53:11.419Z,47.30
2019-02-28T12:55:17.568Z,47.30
2019-02-28T12:57:23.133Z,47.30
2019-02-28T12:59:28.125Z,47.30
2019-02-28T13:01:34.359Z,47.10
2019-02-28T13:03:39.949Z,47.40
2019-02-28T13:05:48.103Z,46.70
2019-02-28T13:07:52.020Z,46.40
2019-02-28T13:09:57.091Z,46.50
2019-02-28T13:12:02.112Z,46.70
2019-02-28T13:14:07.205Z,46.60
2019-02-28T13:16:12.700Z,46.70
2019-02-28T13:18:18.072Z,46.60
2019-02-28T13:20:23.964Z,46.70
2019-02-28T13:22:29.055Z,46.80
2019-02-28T13:24:34.562Z,46.80
2019-02-28T13:26:39.571Z,46.70
2019-02-28T13:28:44.559Z,46.90
2019-02-28T13:30:51.772Z,46.80
2019-02-28T13:32:56.705Z,46.60
2019-02-28T13:35:02.920Z,46.80
2019-02-28T13:37:08.478Z,46.30
2019-02-28T13:39:13.499Z,46.40
2019-02-28T13:41:22.319Z,46.50
2019-02-28T13:43:25.876Z,46.40
2019-02-28T13:45:31.511Z,46.50
2019-02-28T13:47:37.158Z,46.40
2019-02-28T13:49:42.354Z,46.10
2019-02-28T13:51:47.355Z,46.30
2019-02-28T13:53:52.951Z,46.30
2019-02-28T13:55:58.100Z,46.00
2019-02-28T13:58:04.012Z,45.70
2019-02-28T14:00:21.940Z,45.80
2019-02-28T14:02:30.184Z,45.70
2019-02-28T14:04:33.702Z,46.00
2019-02-28T14:06:38.763Z,46.00
2019-02-28T14:08:46.093Z,46.10
2019-02-28T14:10:51.560Z,46.30
2019-02-28T14:12:57.957Z,46.40
2019-02-28T14:15:03.517Z,46.60
2019-02-28T14:17:08.808Z,46.70
2019-02-28T14:19:16.722Z,46.90
2019-02-28T14:21:20.911Z,47.00
2019-02-28T14:23:26.270Z,47.10
2019-02-28T14:25:32.566Z,47.50
2019-02-28T14:27:38.643Z,47.90
2019-02-28T14:29:48.263Z,48.20
2019-02-28T14:31:51.393Z,48.60
2019-02-28T14:33:56.556Z,48.80
2019-02-28T14:36:02.017Z,48.80
2019-02-28T14:38:07.667Z,48.90
2019-02-28T14:40:14.590Z,48.90
2019-02-28T14:42:20.863Z,49.20
2019-02-28T14:44:28.022Z,49.30
2019-02-28T14:46:34.706Z,49.40
2019-02-28T14:48:39.914Z,49.40
2019-02-28T14:50:45.807Z,49.50
2019-02-28T14:52:52.280Z,49.70
2019-02-28T14:54:58.299Z,49.90
2019-02-28T14:57:03.669Z,50.00
2019-02-28T14:59:08.975Z,50.30
2019-02-28T15:01:18.019Z,50.50
2019-02-28T15:03:21.638Z,50.70
2019-02-28T15:05:27.577Z,50.80
2019-02-28T15:07:35.269Z,51.10
2019-02-28T15:09:39.716Z,51.30
2019-02-28T15:11:47.157Z,51.50
2019-02-28T15:13:53.107Z,51.60
2019-02-28T15:15:58.381Z,51.70
2019-02-28T15:18:03.567Z,51.80
2019-02-28T15:20:08.883Z,52.00
2019-02-28T15:22:14.298Z,52.00
2019-02-28T15:24:21.035Z,52.20
2019-02-28T15:26:26.581Z,52.20
2019-02-28T15:28:33.200Z,52.30
2019-02-28T15:30:38.346Z,52.40
2019-02-28T15:32:43.490Z,52.50
2019-02-28T15:34:48.528Z,52.50
2019-02-28T15:36:55.531Z,52.80
2019-02-28T15:39:00.313Z,52.80
2019-02-28T15:41:06.015Z,52.90
2019-02-28T15:43:11.179Z,53.00
2019-02-28T15:45:16.939Z,53.20
2019-02-28T15:47:23.990Z,53.10
2019-02-28T15:49:29.277Z,53.10
2019-02-28T15:51:34.550Z,53.10
2019-02-28T15:53:39.986Z,53.20
2019-02-28T15:55:45.074Z,53.30
2019-02-28T15:57:50.492Z,53.40
2019-02-28T15:59:55.582Z,53.40
2019-02-28T16:02:03.540Z,53.50
2019-02-28T16:04:07.659Z,53.60
2019-02-28T16:06:16.415Z,53.60
2019-02-28T16:08:19.621Z,53.70
2019-02-28T16:10:28.490Z,53.80
2019-02-28T16:12:34.732Z,53.80
2019-02-28T16:14:40.158Z,53.90
2019-02-28T16:16:45.492Z,53.90
2019-02-28T16:18:51.049Z,53.90
2019-02-28T16:20:56.431Z,53.90
2019-02-28T16:23:01.877Z,53.90
2019-02-28T16:25:11.521Z,53.90
2019-02-28T16:27:17.321Z,53.90
2019-02-28T16:29:22.494Z,53.90
2019-02-28T16:31:28.329Z,53.90
2019-02-28T16:33:33.434Z,54.10
2019-02-28T16:35:38.868Z,54.10
2019-02-28T16:37:44.299Z,54.10
2019-02-28T16:39:50.007Z,54.10
2019-02-28T16:41:55.434Z,54.20
2019-02-28T16:44:00.422Z,54.20
2019-02-28T16:46:05.637Z,54.20
2019-02-28T16:48:10.888Z,54.30
2019-02-28T16:50:18.753Z,54.30
2019-02-28T16:52:22.803Z,54.30
2019-02-28T16:54:28.105Z,54.40
2019-02-28T16:56:37.578Z,54.40
2019-02-28T16:58:40.850Z,54.50
2019-02-28T17:00:46.458Z,54.40
2019-02-28T17:02:51.679Z,54.50
2019-02-28T17:04:57.063Z,54.60
2019-02-28T17:07:02.749Z,54.50
2019-02-28T17:09:41.906Z,54.50
2019-02-28T17:11:55.744Z,54.60
2019-02-28T17:14:16.784Z,54.50
2019-02-28T17:16:47.193Z,54.60
2019-02-28T17:18:53.505Z,54.60
2019-02-28T17:20:59.137Z,54.50
2019-02-28T17:23:04.579Z,54.50
2019-02-28T17:25:09.711Z,54.60
2019-02-28T17:27:21.991Z,54.60
2019-02-28T17:29:41.366Z,54.60
2019-02-28T17:31:49.202Z,54.50
2019-02-28T17:33:54.432Z,54.40
2019-02-28T17:35:59.621Z,54.50
2019-02-28T17:38:05.315Z,54.40
2019-02-28T17:40:10.742Z,54.40
2019-02-28T17:42:16.037Z,54.40
2019-02-28T17:45:23.782Z,54.50
2019-02-28T17:48:13.612Z,54.40
2019-02-28T17:51:03.339Z,54.40
2019-02-28T17:53:48.167Z,54.30
2019-02-28T17:56:44.497Z,54.40
2019-02-28T17:59:42.131Z,54.90
2019-02-28T18:02:38.166Z,54.30
2019-02-28T18:05:33.535Z,54.20
2019-02-28T18:08:19.245Z,54.40
2019-02-28T18:11:48.079Z,54.50
2019-02-28T18:14:17.940Z,54.70
2019-02-28T18:16:48.936Z,54.50
2019-02-28T18:19:40.036Z,54.70
2019-02-28T18:22:43.469Z,54.90
2019-02-28T18:25:48.732Z,55.00
2019-02-28T18:28:39.006Z,54.90
2019-02-28T18:31:19.264Z,55.00
2019-02-28T18:33:24.109Z,55.20
2019-02-28T18:35:32.282Z,55.40
2019-02-28T18:37:36.120Z,55.60
2019-02-28T18:39:41.096Z,55.80
2019-02-28T18:41:46.473Z,56.00
2019-02-28T18:43:51.601Z,56.20
2019-02-28T18:45:57.745Z,56.50
2019-02-28T18:48:03.498Z,56.70
2019-02-28T18:50:09.012Z,57.00
2019-02-28T18:52:14.414Z,57.20
2019-02-28T18:54:19.700Z,57.20
2019-02-28T18:56:25.161Z,57.50
2019-02-28T18:58:32.262Z,57.50
2019-02-28T19:00:38.037Z,57.60
2019-02-28T19:02:43.877Z,57.70
2019-02-28T19:04:48.901Z,57.80
2019-02-28T19:06:54.484Z,57.90
2019-02-28T19:08:59.924Z,57.80
2019-02-28T19:11:04.991Z,57.90
2019-02-28T19:13:10.138Z,58.00
2019-02-28T19:15:15.375Z,58.00
2019-02-28T19:17:20.367Z,58.00
2019-02-28T19:19:25.728Z,58.00
2019-02-28T19:21:30.901Z,58.20
2019-02-28T19:23:36.211Z,58.20
2019-02-28T19:25:42.293Z,58.10
2019-02-28T19:27:47.375Z,58.10
2019-02-28T19:29:52.314Z,58.20
2019-02-28T19:31:57.681Z,58.20
2019-02-28T19:34:02.593Z,58.20
2019-02-28T19:36:07.650Z,58.10
2019-02-28T19:38:12.970Z,58.20
2019-02-28T19:40:17.964Z,58.20
2019-02-28T19:42:23.027Z,58.30
2019-02-28T19:44:27.932Z,58.20
2019-02-28T19:46:33.552Z,58.30
2019-02-28T19:48:38.798Z,58.30
2019-02-28T19:50:44.055Z,58.30
2019-02-28T19:52:49.475Z,58.30
2019-02-28T19:54:54.395Z,58.30
2019-02-28T19:56:59.596Z,58.30
2019-02-28T19:59:05.655Z,58.20
2019-02-28T20:01:18.705Z,58.80
2019-02-28T20:03:17.632Z,58.30
2019-02-28T20:05:22.672Z,58.40
2019-02-28T20:07:27.818Z,58.40
2019-02-28T20:09:33.562Z,58.40
2019-02-28T20:11:38.752Z,58.30
2019-02-28T20:13:44.293Z,58.40
2019-02-28T20:15:49.957Z,58.40
2019-02-28T20:17:55.716Z,58.30
2019-02-28T20:20:01.102Z,58.30
2019-02-28T20:22:06.560Z,58.30
2019-02-28T20:24:11.919Z,58.50
2019-02-28T20:26:17.051Z,58.60
2019-02-28T20:28:22.196Z,58.80
2019-02-28T20:30:27.770Z,58.90
2019-02-28T20:32:33.355Z,58.90
2019-02-28T20:34:38.601Z,59.00
2019-02-28T20:36:43.591Z,59.20
2019-02-28T20:38:49.011Z,59.20
2019-02-28T20:40:54.571Z,59.20
2019-02-28T20:42:59.677Z,59.20
2019-02-28T20:45:05.784Z,59.20
2019-02-28T20:47:11.180Z,59.30
2019-02-28T20:49:16.198Z,59.20
2019-02-28T20:51:21.664Z,59.20
2019-02-28T20:53:27.054Z,59.20
2019-02-28T20:55:32.425Z,59.20
2019-02-28T20:57:37.851Z,59.20
2019-02-28T20:59:43.127Z,59.20
2019-02-28T21:01:48.444Z,59.20
2019-02-28T21:03:53.372Z,59.20
2019-02-28T21:05:58.449Z,59.30
2019-02-28T21:08:03.551Z,59.10
2019-02-28T21:10:09.225Z,59.10
2019-02-28T21:12:14.351Z,59.00
2019-02-28T21:14:19.324Z,59.10
2019-02-28T21:16:24.546Z,59.10
2019-02-28T21:18:29.505Z,59.10
2019-02-28T21:20:34.937Z,59.10
2019-02-28T21:22:39.947Z,59.10
2019-02-28T21:24:45.649Z,59.30
2019-02-28T21:26:50.596Z,59.40
2019-02-28T21:28:55.633Z,59.60
2019-02-28T21:31:01.390Z,59.80
2019-02-28T21:33:06.958Z,60.00
2019-02-28T21:35:12.853Z,60.20
2019-02-28T21:37:18.409Z,60.50
2019-02-28T21:39:23.855Z,60.70
2019-02-28T21:41:29.201Z,60.80
2019-02-28T21:43:34.467Z,60.90
2019-02-28T21:45:39.647Z,61.00
2019-02-28T21:47:44.647Z,61.20
2019-02-28T21:49:50.004Z,61.50
2019-02-28T21:51:55.173Z,61.60
2019-02-28T21:54:00.211Z,61.60
2019-02-28T21:56:05.330Z,61.60
2019-02-28T21:58:11.371Z,61.60
2019-02-28T22:00:20.241Z,61.70
2019-02-28T22:02:25.294Z,61.60
2019-02-28T22:04:31.031Z,61.70
2019-02-28T22:06:36.377Z,61.70
2019-02-28T22:08:41.855Z,61.10
2019-02-28T22:10:47.103Z,61.00
2019-02-28T22:12:52.288Z,61.10
2019-02-28T22:14:57.633Z,61.30
2019-02-28T22:17:03.052Z,61.70
2019-02-28T22:19:08.399Z,61.60
2019-02-28T22:21:13.404Z,61.60
2019-02-28T22:23:18.415Z,61.90
2019-02-28T22:25:23.798Z,61.60
2019-02-28T22:27:29.001Z,62.00
2019-02-28T22:29:34.058Z,62.20
2019-02-28T22:32:01.054Z,62.30
2019-02-28T22:34:22.405Z,62.40
2019-02-28T22:36:31.637Z,62.50
2019-02-28T22:38:36.801Z,62.60
2019-02-28T22:40:41.743Z,62.60
2019-02-28T22:42:46.742Z,62.90
2019-02-28T22:44:52.083Z,62.80
2019-02-28T22:46:57.171Z,62.70
2019-02-28T22:49:02.394Z,62.70
2019-02-28T22:51:07.526Z,62.70
2019-02-28T22:53:12.934Z,62.70
2019-02-28T22:55:18.063Z,62.80
2019-02-28T22:57:23.079Z,63.60
2019-02-28T22:59:28.089Z,63.00
2019-02-28T23:01:35.257Z,63.10
2019-02-28T23:03:41.074Z,63.10
2019-02-28T23:05:46.247Z,63.90
2019-02-28T23:07:51.180Z,63.10
2019-02-28T23:09:56.073Z,63.20
2019-02-28T23:12:01.575Z,63.20
2019-02-28T23:14:06.765Z,63.20
2019-02-28T23:16:12.715Z,63.20
2019-02-28T23:18:18.067Z,63.30
2019-02-28T23:20:23.431Z,63.30
2019-02-28T23:22:28.629Z,63.30
2019-02-28T23:24:33.827Z,63.40
2019-02-28T23:27:17.366Z,63.30
2019-02-28T23:29:23.244Z,63.50
2019-02-28T23:32:22.558Z,63.60
2019-02-28T23:34:41.097Z,63.90
2019-02-28T23:36:46.553Z,63.70
2019-02-28T23:38:51.800Z,63.90
2019-02-28T23:40:58.592Z,63.80
2019-02-28T23:43:03.864Z,63.80
2019-02-28T23:45:09.103Z,63.80
2019-02-28T23:47:14.457Z,63.80
2019-02-28T23:49:20.123Z,63.80
2019-02-28T23:51:25.251Z,63.90
2019-02-28T23:53:30.437Z,63.90
2019-02-28T23:55:36.092Z,63.90
2019-02-28T23:57:41.558Z,63.80
2019-02-28T23:59:46.588Z,63.70
